Date,TemperatureHighF,TemperatureAvgF,TemperatureLowF,DewpointHighF,DewpointAvgF,DewpointLowF,HumidityHigh,HumidityAvg,HumidityLow,PressureMaxIn,PressureMinIn,WindSpeedMaxMPH,WindSpeedAvgMPH,GustSpeedMaxMPH,PrecipitationSumIn
2013-1-1,18,13,10,11,10,9,94,85,75,0.00,40.00,7,5,22,0.00
2013-1-2,22,19,17,10,6,0,67,57,45,0.00,40.00,5,3,12,0.00
2013-1-3,31,26,13,7,3,-6,49,37,30,0.00,40.00,3,2,6,0.00
2013-1-4,35,28,23,15,2,-8,43,32,18,0.00,40.00,7,3,13,0.00
2013-1-5,38,26,18,20,12,8,71,56,39,0.00,40.00,6,3,17,0.00
2013-1-6,36,32,26,13,5,2,42,31,25,0.00,40.00,5,3,12,0.00
2013-1-7,36,28,24,24,7,-8,94,45,19,0.00,40.00,20,7,34,0.00
2013-1-8,27,25,22,26,24,22,100,97,91,0.00,40.00,18,11,38,0.00
2013-1-9,45,35,24,25,19,7,100,56,27,0.00,40.00,7,4,43,0.00
2013-1-10,41,27,12,27,18,10,100,73,32,0.00,40.00,23,11,42,0.00
2013-1-11,10,6,3,7,3,1,95,88,85,0.00,40.00,28,17,46,0.00
2013-1-12,4,1,-4,1,-2,-9,93,85,76,0.00,40.00,12,6,21,0.00
2013-1-13,0,-4,-6,-4,-8,-9,87,83,80,0.00,40.00,9,5,16,0.00
2013-1-14,0,-4,-7,-4,-8,-10,88,82,69,0.00,40.00,9,4,19,0.00
2013-1-15,11,6,0,11,5,-2,100,96,92,0.00,40.00,12,6,25,0.00
2013-1-16,33,25,9,17,10,2,100,58,31,0.00,40.00,10,5,25,0.00
2013-1-17,42,33,28,21,8,0,43,34,27,0.00,40.00,4,2,10,0.00
2013-1-18,40,33,29,13,6,-2,38,31,24,0.00,40.00,11,5,21,0.00
2013-1-19,39,34,28,13,9,1,46,34,25,0.00,40.00,9,4,15,0.00
2013-1-20,38,32,27,14,3,-4,39,30,21,0.00,40.00,11,4,19,0.00
2013-1-21,39,34,30,14,7,-4,44,32,17,0.00,40.00,8,4,20,0.00
2013-1-22,49,40,33,9,0,-8,30,19,11,0.00,40.00,5,3,19,0.00
2013-1-23,47,42,39,17,7,1,39,24,17,0.00,40.00,6,3,18,0.00
2013-1-24,40,34,31,34,29,17,100,85,38,0.00,40.00,9,3,23,0.00
2013-1-25,36,32,30,34,30,26,100,92,75,0.00,40.00,6,2,14,0.00
2013-1-26,38,33,30,34,30,28,100,89,78,0.00,40.00,5,2,14,0.00
2013-1-27,31,26,17,31,26,15,100,97,91,0.00,40.00,19,7,46,0.00
2013-1-28,16,12,9,15,8,5,94,87,76,0.00,40.00,20,11,32,0.00
2013-1-29,16,13,9,14,10,6,97,89,82,0.00,40.00,13,10,33,0.00
2013-1-30,24,19,14,23,18,13,99,96,92,0.00,40.00,24,18,44,0.00
2013-1-31,27,25,23,25,23,22,99,92,86,0.00,40.00,20,9,37,0.00
2013-2-1,30,27,25,24,22,13,91,80,56,0.00,40.00,21,11,34,0.00
2013-2-2,39,29,22,21,16,10,90,57,39,0.00,40.00,7,2,14,0.00
2013-2-3,36,31,26,14,6,-2,55,36,25,0.00,40.00,10,4,20,0.00
2013-2-4,33,28,24,16,13,10,70,52,42,0.00,40.00,18,8,28,0.00
2013-2-5,45,37,28,23,15,9,52,41,30,0.00,40.00,5,3,13,0.00
2013-2-6,37,28,20,21,16,10,82,60,31,0.00,40.00,16,7,28,0.00
2013-2-7,35,26,19,15,7,-9,82,48,23,0.00,40.00,5,3,26,0.00
2013-2-8,33,24,20,25,20,14,100,83,60,0.00,40.00,8,3,26,0.00
2013-2-9,24,17,14,21,16,12,99,94,86,0.00,40.00,18,5,30,0.00
2013-2-10,23,15,11,19,13,10,97,89,82,0.00,40.00,14,4,25,0.00
2013-2-11,19,11,6,14,7,0,97,84,61,0.00,40.00,13,6,21,0.00
2013-2-12,20,14,9,18,12,2,100,90,69,0.00,40.00,14,9,24,0.00
2013-2-13,28,22,17,24,20,17,100,94,82,0.00,40.00,17,9,36,0.00
2013-2-14,26,22,20,22,19,13,100,85,70,0.00,40.00,22,13,43,0.00
2013-2-15,36,25,19,26,19,16,93,79,59,0.00,40.00,13,5,21,0.00
2013-2-16,42,33,22,18,12,0,78,44,22,0.00,40.00,6,3,16,0.00
2013-2-17,36,26,14,22,16,1,88,67,22,0.00,40.00,22,13,43,0.00
2013-2-18,28,19,13,17,10,-5,94,70,24,0.00,40.00,10,4,19,0.00
2013-2-19,36,29,24,16,12,4,63,48,35,0.00,40.00,13,5,36,0.00
2013-2-20,31,24,20,23,19,13,100,83,64,0.00,40.00,19,8,29,0.00
2013-2-21,21,16,12,19,13,9,100,89,78,0.00,40.00,22,13,34,0.00
2013-2-22,17,14,11,13,11,8,95,85,77,0.00,40.00,17,10,31,0.00
2013-2-23,25,16,11,24,14,8,98,90,81,0.00,40.00,31,13,54,0.00
2013-2-24,21,13,9,15,10,7,92,85,77,0.00,40.00,16,8,34,0.00
2013-2-25,29,18,10,17,10,2,91,69,58,0.00,40.00,18,6,31,0.00
2013-2-26,15,13,10,14,10,7,99,90,82,0.00,40.00,20,15,38,0.00
2013-2-27,25,16,8,12,7,2,83,68,47,0.00,40.00,9,4,19,0.00
2013-2-28,27,24,16,21,12,4,78,62,49,0.00,40.00,15,9,29,0.00
2013-3-1,41,30,26,32,27,23,97,87,69,0.00,40.00,25,10,40,0.00
2013-3-2,49,38,27,29,22,14,88,55,34,0.00,40.00,6,2,12,0.00
2013-3-3,40,33,29,32,29,21,100,87,47,0.00,40.00,15,7,32,0.00
2013-3-4,28,27,26,28,27,26,100,100,100,0.00,40.00,21,17,40,0.00
2013-3-5,42,38,36,19,13,1,47,37,17,0.00,40.00,8,7,35,0.00
2013-3-6,44,38,29,31,23,18,100,56,41,0.00,40.00,13,7,35,0.00
2013-3-7,40,31,24,34,28,18,100,89,41,0.00,40.00,7,3,20,0.00
2013-3-8,38,30,27,32,29,27,100,94,69,0.00,40.00,5,3,17,0.00
2013-3-9,28,26,22,28,24,13,100,94,67,0.00,40.00,21,7,29,0.00
2013-3-10,37,28,21,23,15,11,70,57,43,0.00,40.00,14,7,28,0.00
2013-3-11,35,31,28,28,20,12,84,66,47,0.00,40.00,21,14,38,0.00
2013-3-12,44,35,30,32,29,27,97,79,58,0.00,40.00,18,9,36,0.00
2013-3-13,50,43,36,31,28,24,75,57,43,0.00,40.00,11,4,19,0.00
2013-3-14,58,50,44,25,22,17,37,33,27,0.00,40.00,7,4,17,0.00
2013-3-15,54,48,43,26,22,19,44,36,31,0.00,40.00,16,7,28,0.00
2013-3-16,43,38,35,25,21,14,61,49,37,0.00,40.00,18,10,38,0.00
2013-3-17,37,27,22,31,22,13,100,82,48,0.00,40.00,22,15,45,0.00
2013-3-18,31,25,19,19,16,12,93,70,53,0.00,40.00,18,11,35,0.00
2013-3-19,40,31,23,16,3,-12,62,31,16,0.00,40.00,18,6,30,0.00
2013-3-20,37,35,31,36,28,11,100,79,39,0.00,40.00,8,4,27,0.00
2013-3-21,37,27,19,34,21,7,100,79,59,0.00,40.00,24,13,45,0.00
2013-3-22,18,15,11,16,11,7,97,85,62,0.00,40.00,17,10,40,0.00
2013-3-23,17,12,9,13,9,4,95,87,73,0.00,40.00,20,12,29,0.00
2013-3-24,22,15,11,15,8,1,87,75,62,0.00,40.00,12,7,24,0.00
2013-3-25,37,25,11,23,15,1,89,66,46,0.00,40.00,6,3,15,0.00
2013-3-26,45,36,31,32,23,18,95,60,40,0.00,40.00,12,4,26,0.00
2013-3-27,49,40,31,30,24,18,83,54,37,0.00,40.00,6,4,15,0.00
2013-3-28,52,44,39,29,24,16,58,45,34,0.00,40.00,10,4,22,0.00
2013-3-29,46,42,37,35,29,26,91,61,51,0.00,40.00,14,8,26,0.00
2013-3-30,48,43,40,33,26,-100,59,53,41,0.00,40.00,10,7,23,0.00
2013-3-31,55,45,35,28,22,17,63,42,22,0.00,40.00,12,4,24,0.00
2013-4-1,42,36,31,37,33,29,100,92,61,0.00,40.00,9,3,25,0.00
2013-4-2,44,35,30,37,33,30,100,92,69,0.00,40.00,11,5,20,0.00
2013-4-3,49,42,37,36,31,24,85,65,48,0.00,40.00,16,9,25,0.00
2013-4-4,56,48,41,32,26,21,54,42,34,0.00,40.00,9,4,22,0.00
2013-4-5,46,37,31,39,31,24,100,80,45,0.00,40.00,16,10,31,0.00
2013-4-6,45,37,32,37,28,23,100,69,48,0.00,40.00,14,7,30,0.00
2013-4-7,45,39,34,34,28,21,87,64,44,0.00,40.00,11,6,32,0.00
2013-4-8,41,31,19,33,28,19,100,90,45,0.00,40.00,9,5,27,0.00
2013-4-9,19,14,9,19,13,9,100,95,82,0.00,40.00,10,5,25,0.00
2013-4-10,36,27,16,29,20,12,90,75,62,0.00,40.00,26,10,38,0.00
2013-4-11,37,33,30,34,31,27,100,90,74,0.00,40.00,20,11,40,0.00
2013-4-12,43,36,29,31,24,20,74,62,46,0.00,40.00,12,7,21,0.00
2013-4-13,42,36,25,35,25,12,100,70,33,0.00,40.00,19,10,45,0.00
2013-4-14,33,23,17,21,12,2,100,62,42,0.00,40.00,14,8,30,0.00
2013-4-15,33,26,20,31,24,20,100,95,82,0.00,40.00,11,4,24,0.00
2013-4-16,24,21,18,22,20,12,100,94,79,0.00,40.00,5,3,15,0.00
2013-4-17,23,17,11,20,12,8,96,81,67,0.00,40.00,18,7,30,0.00
2013-4-18,28,22,15,11,5,-5,69,49,40,0.00,40.00,18,11,34,0.00
2013-4-19,39,31,27,31,21,8,100,69,44,0.00,40.00,15,7,29,0.00
2013-4-20,34,31,29,32,30,26,100,94,72,0.00,40.00,22,14,39,0.00
2013-4-21,45,38,29,30,26,22,75,62,48,0.00,40.00,13,8,26,0.00
2013-4-22,38,31,24,29,25,16,98,77,52,0.00,40.00,19,11,32,0.00
2013-4-23,36,25,16,22,15,3,100,70,31,0.00,40.00,12,5,19,0.00
2013-4-24,44,35,26,22,10,0,45,36,23,0.00,40.00,8,4,17,0.00
2013-4-25,46,40,32,21,14,3,47,35,20,0.00,40.00,19,8,31,0.00
2013-4-26,50,44,38,21,15,9,34,30,27,0.00,40.00,14,7,22,0.00
2013-4-27,53,48,44,24,20,11,38,32,25,0.00,40.00,14,9,27,0.00
2013-4-28,60,53,49,31,25,21,39,33,30,0.00,40.00,11,8,28,0.00
2013-4-29,55,47,42,31,25,20,49,41,34,0.00,40.00,17,12,37,0.00
2013-4-30,43,36,29,31,15,9,61,41,31,0.00,40.00,20,12,36,0.00
2013-5-1,30,25,20,25,14,3,96,64,35,0.00,40.00,19,12,33,0.00
2013-5-2,49,35,24,23,13,9,71,42,25,0.00,40.00,5,4,15,0.00
2013-5-3,52,44,36,21,16,13,42,32,24,0.00,40.00,14,5,24,0.00
2013-5-4,54,45,39,30,19,6,63,35,22,0.00,40.00,5,3,18,0.00
2013-5-5,59,44,32,34,31,27,86,63,29,0.00,40.00,7,3,20,0.00
2013-5-6,58,45,40,37,33,28,86,63,40,0.00,40.00,7,3,18,0.00
2013-5-7,50,41,35,39,36,30,100,83,48,0.00,40.00,8,3,23,0.00
2013-5-8,48,41,34,44,38,34,100,89,69,0.00,40.00,6,3,59,0.00
2013-5-9,55,45,38,40,35,28,96,70,36,0.00,40.00,8,4,21,0.00
2013-5-10,58,50,42,39,32,-100,67,54,37,0.00,40.00,11,4,23,0.00
2013-5-11,63,53,46,36,28,-100,55,40,29,0.00,40.00,11,6,21,0.00
2013-5-12,66,60,54,34,30,24,35,31,28,0.00,40.00,12,6,24,0.00
2013-5-13,75,64,56,39,32,28,35,30,22,0.00,40.00,6,3,16,0.00
2013-5-14,71,64,59,41,32,27,35,30,24,0.00,40.00,11,5,22,0.00
2013-5-15,71,60,53,42,35,27,51,39,25,0.00,40.00,18,7,34,0.00
2013-5-16,65,49,47,43,18,-100,79,53,33,0.00,40.00,20,7,32,0.00
2013-5-17,54,45,41,45,34,-100,94,80,58,0.00,40.00,15,5,35,0.00
2013-5-18,43,38,35,39,37,35,100,97,76,0.00,40.00,14,7,30,0.00
2013-6-10,77,72,67,27,22,16,16,15,13,0.00,40.00,11,8,28,0.00
2013-6-11,69,64,59,31,26,22,27,23,18,0.00,40.00,15,10,33,0.00
2013-6-12,71,65,57,41,32,27,37,29,21,0.00,40.00,12,5,38,0.00
2013-6-13,73,64,50,42,33,26,56,32,18,0.00,40.00,22,10,44,0.00
2013-6-14,64,53,43,43,33,18,59,48,27,0.00,40.00,16,6,22,0.00
2013-6-15,70,55,44,41,29,19,57,37,19,0.00,40.00,11,4,26,0.00
2013-6-16,74,65,57,29,20,11,21,17,12,0.00,40.00,12,6,32,0.00
2013-6-17,78,65,57,39,19,10,33,17,12,0.00,40.00,6,3,18,0.00
2013-6-18,77,67,61,38,21,11,29,16,12,0.00,40.00,7,4,35,0.00
2013-6-19,65,58,45,35,22,14,36,25,15,0.00,40.00,21,9,37,0.00
2013-6-20,61,47,39,38,25,17,46,42,33,0.00,40.00,12,3,21,0.00
2013-6-22,59,55,51,37,33,24,49,43,33,0.00,40.00,12,9,26,0.00
2013-6-23,71,60,48,40,30,17,44,32,23,0.00,40.00,7,3,29,0.00
2013-6-24,67,59,49,44,34,25,84,42,26,0.00,40.00,10,6,37,0.00
2013-6-25,71,58,46,54,44,39,85,64,34,0.00,40.00,7,4,19,0.00
2013-6-26,79,69,59,52,45,37,52,43,31,0.00,40.00,7,5,21,0.00
2013-6-27,84,73,64,54,46,40,44,37,31,0.00,40.00,10,4,16,0.00
2013-6-28,85,77,67,50,42,37,38,29,23,0.00,40.00,5,3,17,0.00
2013-6-29,83,76,68,51,42,34,39,29,23,0.00,40.00,10,3,25,0.00
2013-6-30,83,74,60,55,44,32,57,36,22,0.00,40.00,6,4,17,0.00
2013-7-1,83,74,65,50,42,35,45,31,23,0.00,40.00,6,3,16,0.00
2013-7-2,82,74,64,51,43,37,43,33,27,0.00,40.00,7,3,21,0.00
2013-7-3,79,72,64,56,48,38,52,42,29,0.00,40.00,10,4,20,0.00
2013-7-4,72,66,53,64,55,46,100,69,43,0.00,40.00,27,6,49,0.00
2013-7-5,76,63,51,63,55,51,100,78,42,0.00,40.00,34,7,52,0.00
2013-7-6,77,60,52,61,52,47,98,76,49,0.00,40.00,15,4,41,0.00
2013-7-7,73,63,55,60,52,46,83,68,48,0.00,40.00,10,5,34,0.00
2013-7-8,77,65,57,58,49,42,74,56,38,0.00,40.00,9,3,19,0.00
2013-7-9,83,72,65,51,42,33,47,34,23,0.00,40.00,4,3,20,0.00
2013-7-10,83,72,64,50,28,-100,33,21,17,0.00,40.00,4,3,18,0.00
2013-7-11,74,67,55,53,39,19,87,42,12,0.00,40.00,25,6,51,0.00
2013-7-12,70,58,52,61,54,50,100,86,64,0.00,40.00,5,2,11,0.00
2013-7-13,75,64,55,60,55,50,91,73,56,0.00,40.00,21,4,37,0.00
2013-7-14,77,66,53,62,51,43,92,60,36,0.00,40.00,4,3,15,0.00
2013-7-15,78,68,63,59,50,43,75,53,42,0.00,40.00,10,2,22,0.00
2013-7-16,78,66,57,62,54,47,95,68,48,0.00,40.00,21,5,38,0.00
2013-7-17,73,66,57,65,57,50,89,73,58,0.00,40.00,12,4,21,0.00
2013-7-18,79,70,59,61,52,43,78,55,38,0.00,40.00,11,4,37,0.00
2013-7-19,80,71,65,50,40,33,40,32,24,0.00,40.00,11,4,18,0.00
2013-7-20,79,72,67,44,31,-100,31,23,18,0.00,40.00,6,3,20,0.00
2013-7-21,80,74,69,48,36,27,36,25,19,0.00,40.00,9,4,17,0.00
2013-7-22,81,74,68,48,35,22,36,24,14,0.00,40.00,9,4,21,0.00
2013-7-23,80,72,68,43,30,23,30,21,16,0.00,40.00,9,4,17,0.00
2013-7-24,77,70,66,53,38,18,53,34,14,0.00,40.00,8,3,13,0.00
2013-7-25,77,70,64,54,44,38,52,39,29,0.00,40.00,11,5,23,0.00
2013-7-26,79,71,63,48,38,32,39,30,22,0.00,40.00,11,5,21,0.00
2013-7-27,70,63,56,57,48,30,92,62,22,0.00,40.00,16,6,29,0.00
2013-7-28,68,60,52,58,52,48,96,76,59,0.00,40.00,12,5,34,0.00
2013-7-29,68,60,54,57,48,39,80,65,45,0.00,40.00,10,4,20,0.00
2013-7-30,76,66,57,52,43,34,66,45,26,0.00,40.00,9,4,26,0.00
2013-7-31,79,69,63,48,39,35,43,33,23,0.00,40.00,9,5,21,0.00
2013-8-1,77,69,64,60,47,35,77,46,29,0.00,40.00,10,6,33,0.00
2013-8-2,76,66,58,53,38,31,60,38,19,0.00,40.00,13,6,28,0.00
2013-8-3,77,69,61,38,32,27,30,25,19,0.00,40.00,9,5,27,0.00
2013-8-4,79,69,62,43,35,30,33,29,25,0.00,40.00,7,5,22,0.00
2013-8-5,75,69,63,48,38,33,41,33,27,0.00,40.00,16,6,39,0.00
2013-8-6,77,69,64,47,36,30,39,29,23,0.00,40.00,12,7,23,0.00
2013-8-7,76,67,60,41,37,32,48,33,25,0.00,40.00,12,5,24,0.00
2013-8-8,72,62,53,55,42,35,85,49,32,0.00,40.00,7,3,25,0.00
2013-8-9,76,62,56,47,40,28,63,44,28,0.00,40.00,6,3,28,0.00
2013-8-10,74,65,59,46,38,32,50,38,22,0.00,40.00,5,3,19,0.00
2013-8-11,74,65,56,45,40,35,53,40,29,0.00,40.00,6,3,20,0.00
2013-8-12,69,63,59,48,39,34,51,41,32,0.00,40.00,12,4,25,0.00
2013-8-13,74,64,56,46,35,-100,52,36,23,0.00,40.00,4,3,10,0.00
2013-8-14,79,66,56,44,31,-100,44,30,16,0.00,40.00,8,4,25,0.00
2013-8-15,82,66,63,38,19,-100,26,19,15,0.00,40.00,7,4,20,0.00
2013-8-16,81,69,66,38,25,-100,27,20,14,0.00,40.00,8,4,18,0.00
2013-8-17,77,68,59,51,39,-100,65,36,27,0.00,40.00,12,4,29,0.00
2013-8-18,78,70,61,51,44,39,46,39,30,0.00,40.00,11,4,21,0.00
2013-8-19,77,64,63,51,38,-100,60,44,31,0.00,40.00,8,4,21,0.00
2013-8-20,73,65,60,54,46,-100,71,53,46,0.00,40.00,15,5,25,0.00
2013-8-21,76,66,58,55,48,43,65,53,35,0.00,40.00,12,5,20,0.00
2013-8-22,71,64,55,58,51,41,91,63,41,0.00,40.00,25,7,41,0.00
2013-8-23,65,58,53,56,52,48,96,78,66,0.00,40.00,7,4,26,0.00
2013-8-25,70,64,57,55,51,50,78,64,52,0.00,40.00,5,4,18,0.00
2013-8-26,65,58,55,55,51,47,86,77,67,0.00,40.00,4,3,17,0.00
2013-8-27,62,58,56,55,52,49,89,80,74,0.00,40.00,3,2,12,0.00
2013-8-28,75,69,64,59,52,46,76,55,36,0.00,40.00,7,4,17,0.00
2013-8-29,77,68,62,56,49,44,57,50,43,0.00,40.00,10,4,16,0.00
2013-8-30,78,70,65,53,49,45,55,48,41,0.00,40.00,11,5,20,0.00
2013-8-31,75,69,63,53,48,44,55,46,42,0.00,40.00,5,3,16,0.00
2013-9-1,73,66,58,57,55,53,92,69,54,0.00,40.00,4,2,16,0.00
2013-9-2,72,64,58,63,56,53,94,76,58,0.00,40.00,6,3,17,0.00
2013-9-3,71,64,57,60,55,52,88,74,54,0.00,40.00,9,3,21,0.00
2013-9-4,74,68,61,58,55,51,82,62,51,0.00,40.00,5,3,11,0.00
2013-9-5,79,68,56,56,50,45,79,54,32,0.00,40.00,8,4,26,0.00
2013-9-6,79,68,60,53,47,42,68,48,28,0.00,40.00,17,6,31,0.00
2013-9-7,68,55,50,53,46,-100,100,77,58,0.00,40.00,23,4,41,0.00
2013-9-8,58,53,48,56,51,46,100,91,77,0.00,40.00,4,2,14,0.00
2013-9-9,64,57,53,53,47,42,76,69,48,0.00,40.00,11,4,20,0.00
2013-9-10,61,54,50,55,48,43,93,79,67,0.00,40.00,4,2,13,0.00
2013-9-11,64,54,49,59,52,49,100,94,75,0.00,40.00,6,3,23,0.00
2013-9-12,65,53,46,56,50,46,100,91,64,0.00,40.00,6,3,34,0.00
2013-9-13,54,50,47,54,50,47,100,100,97,0.00,40.00,12,2,23,0.00
2013-9-14,56,50,48,56,48,-100,100,95,90,0.00,40.00,7,2,22,0.00
2013-9-15,63,54,46,55,50,46,100,87,70,0.00,40.00,3,2,14,0.00
2013-9-16,70,60,53,57,48,43,82,66,44,0.00,40.00,13,3,33,0.00
2013-9-17,66,60,56,57,48,38,89,66,41,0.00,40.00,10,5,41,0.00
2013-9-18,61,53,44,44,35,13,73,53,27,0.00,40.00,18,15,51,0.00
2013-9-19,57,46,38,37,31,21,73,54,43,0.00,40.00,4,3,12,0.00
2013-9-20,69,55,44,37,30,12,51,39,25,0.00,40.00,6,3,19,0.00
2013-9-21,68,59,54,36,30,-100,47,35,28,0.00,40.00,9,5,31,0.00
2013-9-22,57,51,43,41,36,30,85,57,39,0.00,40.00,19,8,34,0.00
2013-9-23,54,44,38,37,34,32,84,69,44,0.00,40.00,23,11,40,0.00
2013-9-24,67,56,46,37,26,18,44,32,19,0.00,40.00,9,5,36,0.00
2013-9-25,54,41,30,40,30,25,100,71,31,0.00,40.00,25,10,45,0.00
2013-9-26,36,31,29,36,31,29,100,100,100,0.00,40.00,8,2,21,0.00
2013-9-27,30,30,28,30,28,25,100,94,81,0.00,40.00,18,11,33,0.00
2013-9-28,49,38,31,37,26,-100,78,64,34,0.00,40.00,9,4,17,0.00
2013-9-29,59,51,44,34,27,18,52,38,30,0.00,40.00,13,7,44,0.00
2013-9-30,62,56,53,34,30,25,43,35,31,0.00,40.00,11,8,31,0.00
2013-10-1,61,56,53,35,30,25,44,37,30,0.00,40.00,5,4,21,0.00
2013-10-2,59,48,38,41,34,27,100,61,35,0.00,40.00,19,5,33,0.00
2013-10-3,45,32,25,42,30,24,100,93,72,0.00,40.00,25,12,57,0.00
2013-10-4,32,26,23,27,24,22,100,92,79,0.00,40.00,12,6,28,0.00
2013-10-5,46,34,28,34,25,14,85,70,40,0.00,40.00,9,5,23,0.00
2013-10-6,58,49,36,39,29,18,58,47,37,0.00,40.00,3,2,6,0.00
2013-10-7,66,57,51,33,21,11,29,24,18,0.00,40.00,7,4,22,0.00
2013-10-8,54,49,41,29,22,15,47,34,22,0.00,40.00,16,7,37,0.00
2013-10-9,55,44,39,37,28,22,83,53,37,0.00,40.00,5,3,25,0.00
2013-10-10,41,36,32,39,35,31,100,96,85,0.00,40.00,20,5,39,0.00
2013-10-11,40,35,31,33,29,22,94,79,60,0.00,40.00,25,9,39,0.00
2013-10-12,49,40,34,36,23,-100,97,53,40,0.00,40.00,9,3,22,0.00
2013-10-13,47,38,32,40,35,32,100,87,67,0.00,40.00,12,4,26,0.00
2013-10-14,33,31,29,31,30,27,100,95,87,0.00,40.00,19,12,30,0.00
2013-10-15,36,29,25,32,26,21,100,88,70,0.00,40.00,4,3,15,0.00
2013-10-16,39,32,26,28,22,17,85,68,49,0.00,40.00,13,5,23,0.00
2013-10-17,42,36,33,26,20,12,72,54,39,0.00,40.00,19,9,35,0.00
2013-10-18,42,35,30,27,23,10,76,62,31,0.00,40.00,11,5,21,0.00
2013-10-19,47,39,33,25,18,-100,63,44,29,0.00,40.00,16,7,28,0.00
2013-10-20,45,42,38,26,20,16,62,42,32,0.00,40.00,18,12,28,0.00
2013-10-21,51,42,35,30,26,21,65,51,40,0.00,40.00,7,4,14,0.00
2013-10-22,56,46,39,28,23,15,54,41,30,0.00,40.00,4,2,10,0.00
2013-10-23,56,49,42,30,25,22,49,39,31,0.00,40.00,8,3,14,0.00
2013-10-24,56,50,45,28,24,20,43,36,30,0.00,40.00,11,4,17,0.00
2013-10-25,54,49,46,25,22,19,40,34,30,0.00,40.00,13,6,20,0.00
2013-10-26,54,46,41,27,21,-100,50,37,29,0.00,40.00,15,6,22,0.00
2013-10-27,56,48,42,30,20,15,61,33,22,0.00,40.00,8,4,23,0.00
2013-10-28,46,36,28,36,29,-100,100,81,50,0.00,40.00,14,5,38,0.00
2013-10-29,35,29,26,34,29,25,100,98,90,0.00,40.00,5,2,12,0.00
2013-10-30,29,26,25,27,26,24,100,96,93,0.00,40.00,15,9,29,0.00
2013-10-31,37,30,25,31,28,25,100,91,70,0.00,40.00,16,10,37,0.00
2013-11-1,44,35,31,33,30,24,100,85,59,0.00,40.00,23,10,41,0.00
2013-11-2,52,43,36,24,9,-100,52,27,19,0.00,40.00,14,5,37,0.00
2013-11-3,44,26,17,28,20,15,100,80,31,0.00,40.00,22,12,39,0.00
2013-11-4,24,19,16,22,15,11,96,85,71,0.00,40.00,13,5,23,0.00
2013-11-5,27,19,16,18,14,5,98,80,49,0.00,40.00,12,7,31,0.00
2013-11-6,33,29,23,28,23,13,87,76,65,0.00,40.00,11,6,26,0.00
2013-11-7,47,41,33,33,26,19,78,56,32,0.00,40.00,17,5,35,0.00
2013-11-8,45,42,39,28,22,19,56,45,37,0.00,40.00,14,8,32,0.00
2013-11-9,51,43,41,26,20,-100,44,41,34,0.00,40.00,8,4,18,0.00
2013-11-10,51,45,40,24,19,16,42,35,28,0.00,40.00,5,3,11,0.00
2013-11-11,54,48,43,23,19,15,35,30,26,0.00,40.00,11,5,16,0.00
2013-11-12,56,49,43,24,19,14,31,29,25,0.00,40.00,6,3,9,0.00
2013-11-13,51,45,35,29,20,13,80,39,25,0.00,40.00,16,6,28,0.00
2013-11-14,41,36,32,30,18,6,84,49,28,0.00,40.00,15,5,24,0.00
2013-11-15,36,28,21,30,23,18,100,83,47,0.00,40.00,14,6,30,0.00
2013-11-16,26,24,22,25,20,-100,100,87,61,0.00,40.00,14,8,40,0.00
2013-11-17,36,30,23,28,24,20,100,80,54,0.00,40.00,19,8,35,0.00
2013-11-18,47,40,35,28,22,16,60,49,35,0.00,40.00,10,4,19,0.00
2013-11-19,41,36,32,35,28,20,100,77,43,0.00,40.00,11,4,24,0.00
2013-11-20,39,34,31,35,31,27,100,90,73,0.00,40.00,5,2,16,0.00
2013-11-21,31,23,15,31,23,15,100,100,99,0.00,40.00,6,2,18,0.00
2013-11-22,23,15,7,19,12,6,99,87,68,0.00,40.00,3,2,8,0.00
2013-11-23,26,19,12,19,10,-100,87,71,57,0.00,40.00,4,2,10,0.00
2013-11-24,32,26,20,28,22,11,100,86,45,0.00,40.00,8,4,20,0.00
2013-11-25,39,32,28,23,19,15,71,58,39,0.00,40.00,11,4,25,0.00
2013-11-26,46,37,32,22,19,13,64,48,35,0.00,40.00,4,2,12,0.00
2013-11-27,48,41,36,20,14,6,50,34,25,0.00,40.00,3,2,7,0.00
2013-11-28,46,38,34,22,16,12,54,41,31,0.00,40.00,4,2,9,0.00
2013-11-29,39,34,31,26,22,17,69,61,47,0.00,40.00,4,2,9,0.00
2013-11-30,38,32,29,25,21,-100,77,67,56,0.00,40.00,8,3,12,0.00
2013-12-1,38,34,30,29,27,24,86,77,65,0.00,40.00,14,8,31,0.00
2013-12-2,39,35,30,32,26,19,100,72,44,0.00,40.00,15,9,39,0.00
2013-12-3,31,17,7,31,16,6,100,98,94,0.00,40.00,21,6,35,0.00
2013-12-4,7,2,-2,6,-1,-7,96,87,75,0.00,40.00,21,6,33,0.00
2013-12-5,6,0,-4,2,-5,-10,90,79,63,0.00,40.00,6,3,10,0.00
2013-12-6,8,3,-4,4,-2,-9,94,78,64,0.00,40.00,5,3,17,0.00
2013-12-7,13,8,5,12,6,-100,97,92,84,0.00,40.00,19,6,34,0.00
2013-12-8,7,2,-1,3,-2,-4,91,85,76,0.00,40.00,21,11,36,0.00
2013-12-9,7,1,-4,3,-3,-8,92,82,57,0.00,40.00,19,7,34,0.00
2013-12-10,25,17,3,13,9,-2,86,71,59,0.00,40.00,10,6,29,0.00
2013-12-11,30,22,14,17,13,11,86,68,48,0.00,40.00,3,2,7,0.00
2013-12-12,41,31,25,22,13,8,56,47,37,0.00,40.00,2,2,5,0.00
2013-12-13,31,24,20,18,14,7,94,67,35,0.00,40.00,20,12,33,0.00
2013-12-14,27,20,14,22,16,-100,100,93,72,0.00,40.00,12,4,28,0.00
2013-12-15,39,37,34,18,13,9,42,37,30,0.00,40.00,16,12,33,0.00
2013-12-16,40,37,33,21,13,5,49,38,28,0.00,40.00,17,10,34,0.00
2013-12-17,46,41,34,17,11,6,31,28,23,0.00,40.00,7,2,12,0.00
2013-12-18,47,41,34,34,22,14,99,50,30,0.00,40.00,6,4,22,0.00
2013-12-19,33,28,20,33,28,20,100,100,100,0.00,40.00,13,4,26,0.00
2013-12-20,21,17,12,20,16,12,100,93,84,0.00,40.00,13,5,24,0.00
2013-12-21,21,18,12,20,15,-100,100,95,80,0.00,40.00,20,10,34,0.00
2013-12-22,24,21,16,24,20,16,100,96,86,0.00,40.00,17,12,38,0.00
2013-12-23,32,28,24,30,27,23,100,96,83,0.00,40.00,14,8,27,0.00
2013-12-24,34,26,20,32,19,2,100,75,42,0.00,40.00,25,11,49,0.00
2013-12-25,33,27,20,18,8,0,53,45,26,0.00,40.00,9,4,19,0.00
2013-12-26,37,34,28,23,11,-1,66,39,25,0.00,40.00,10,7,20,0.00
2013-12-27,45,39,31,26,22,17,71,50,42,0.00,40.00,5,2,13,0.00
2013-12-28,38,29,19,19,15,-100,88,59,40,0.00,40.00,13,8,23,0.00
2013-12-29,28,21,17,17,12,7,87,68,46,0.00,40.00,7,4,16,0.00
2013-12-30,31,27,21,24,16,4,78,62,40,0.00,40.00,15,6,29,0.00
2013-12-31,38,32,29,30,26,22,94,77,59,0.00,40.00,21,10,36,0.00
2014-1-1,33,28,24,26,22,17,88,79,66,0.00,40.00,24,11,40,0.00
2014-1-2,40,33,25,21,16,13,78,50,39,0.00,40.00,4,2,8,0.00